createdAt,value
2022-12-25T07:15:05.331Z,8.17
2022-12-25T07:17:34.935Z,8.40
2022-12-25T07:20:02.060Z,7.73
2022-12-25T07:22:30.393Z,8.47
2022-12-25T07:24:57.392Z,6.30
2022-12-25T07:27:24.395Z,6.47
2022-12-25T07:29:51.369Z,4.93
2022-12-25T07:32:18.274Z,5.33
2022-12-25T07:34:45.120Z,5.23
2022-12-25T07:37:12.099Z,5.80
2022-12-25T07:39:39.007Z,6.57
2022-12-25T07:42:06.981Z,6.68
2022-12-25T07:44:33.814Z,5.40
2022-12-25T07:47:00.686Z,6.35
2022-12-25T07:49:27.510Z,5.25
2022-12-25T07:51:54.402Z,4.68
2022-12-25T07:54:21.419Z,2.80
2022-12-25T07:56:52.746Z,3.25
2022-12-25T07:59:20.730Z,2.67
2022-12-25T08:01:50.206Z,3.85
2022-12-25T08:04:17.357Z,3.55
2022-12-25T08:06:44.258Z,3.90
2022-12-25T08:09:13.143Z,3.47
2022-12-25T08:11:40.334Z,3.55
2022-12-25T08:14:08.423Z,3.30
2022-12-25T08:16:35.739Z,2.95
2022-12-25T08:19:02.719Z,1.90
2022-12-25T08:21:29.549Z,2.40
2022-12-25T08:23:56.401Z,3.75
2022-12-25T08:26:23.464Z,1.80
2022-12-25T08:28:51.179Z,2.17
2022-12-25T08:31:21.669Z,3.35
2022-12-25T08:33:50.498Z,3.78
2022-12-25T08:36:18.537Z,3.53
2022-12-25T08:38:45.965Z,2.53
2022-12-25T08:41:13.478Z,1.80
2022-12-25T08:43:40.376Z,1.67
2022-12-25T08:46:08.476Z,1.67
2022-12-25T08:48:35.615Z,1.83
2022-12-25T08:51:03.631Z,1.27
2022-12-25T08:53:30.555Z,1.15
2022-12-25T08:56:03.919Z,1.30
2022-12-25T08:58:31.155Z,2.38
2022-12-25T09:00:58.215Z,2.55
2022-12-25T09:03:25.131Z,2.33
2022-12-25T09:05:53.182Z,2.38
2022-12-25T09:08:21.960Z,1.70
2022-12-25T09:10:49.451Z,2.05
2022-12-25T09:13:16.719Z,1.23
2022-12-25T09:15:43.662Z,1.60
2022-12-25T09:18:10.586Z,0.80
2022-12-25T09:20:37.431Z,1.02
2022-12-25T09:23:08.521Z,1.02
2022-12-25T09:25:38.693Z,1.17
2022-12-25T09:28:05.491Z,1.05
2022-12-25T09:30:32.409Z,0.90
2022-12-25T09:32:59.375Z,0.57
2022-12-25T09:35:26.267Z,1.00
2022-12-25T09:37:53.134Z,1.13
2022-12-25T09:40:21.752Z,1.60
2022-12-25T09:42:49.662Z,1.40
2022-12-25T09:45:27.517Z,0.98
2022-12-25T09:47:57.867Z,1.23
2022-12-25T09:50:40.807Z,0.60
2022-12-25T09:53:23.850Z,0.73
2022-12-25T09:56:04.633Z,1.17
2022-12-25T09:58:34.083Z,0.60
2022-12-25T10:01:12.896Z,1.48
2022-12-25T10:03:48.953Z,1.40
2022-12-25T10:06:48.461Z,1.10
2022-12-25T10:09:38.611Z,0.80
2022-12-25T10:12:27.525Z,1.05
2022-12-25T10:14:57.464Z,0.40
2022-12-25T10:17:46.005Z,0.63
2022-12-25T10:20:26.860Z,0.52
2022-12-25T10:22:59.601Z,0.40
2022-12-25T10:25:26.499Z,1.30
2022-12-25T10:27:59.794Z,1.25
2022-12-25T10:30:28.872Z,0.75
2022-12-25T10:32:57.724Z,0.90
2022-12-25T10:35:27.963Z,0.45
2022-12-25T10:38:01.721Z,1.15
2022-12-25T10:40:32.598Z,0.90
2022-12-25T10:43:10.909Z,0.77
2022-12-25T10:45:48.543Z,0.70
2022-12-25T10:48:23.260Z,1.70
2022-12-25T10:50:50.339Z,1.48
2022-12-25T10:53:28.724Z,1.40
2022-12-25T10:56:04.534Z,1.10
2022-12-25T10:58:32.398Z,1.08
2022-12-25T11:01:06.964Z,0.73
2022-12-25T11:03:37.718Z,0.90
2022-12-25T11:06:05.512Z,1.02
2022-12-25T11:08:34.942Z,1.20
2022-12-25T11:11:07.925Z,1.38
2022-12-25T11:13:39.412Z,0.70
2022-12-25T11:16:09.763Z,1.02
2022-12-25T11:18:51.548Z,0.60
2022-12-25T11:21:33.221Z,1.85
2022-12-25T11:24:05.371Z,3.88
2022-12-25T11:26:46.128Z,1.67
2022-12-25T11:29:45.150Z,1.73
2022-12-25T11:32:19.578Z,0.82
2022-12-25T11:34:48.827Z,0.73
2022-12-25T11:40:06.508Z,1.60
2022-12-25T11:42:36.747Z,0.57
2022-12-25T11:45:12.408Z,1.33
2022-12-25T11:47:54.205Z,1.10
2022-12-25T11:50:45.866Z,1.33
2022-12-25T11:53:33.759Z,1.27
2022-12-25T11:56:08.262Z,1.17
2022-12-25T11:58:42.732Z,1.65
2022-12-25T12:01:31.087Z,4.95
2022-12-25T12:04:01.143Z,1.60
2022-12-25T12:06:51.208Z,3.28
2022-12-25T12:09:56.961Z,13.57
2022-12-25T12:12:56.438Z,6.97
2022-12-25T12:15:39.900Z,1.38
2022-12-25T12:18:32.937Z,1.75
2022-12-25T12:21:20.787Z,4.40
2022-12-25T12:23:50.383Z,2.88
2022-12-25T12:26:41.030Z,1.80
2022-12-25T12:29:29.696Z,1.10
2022-12-25T12:32:04.041Z,1.23
2022-12-25T12:34:58.011Z,1.23
2022-12-25T12:37:33.016Z,1.15
2022-12-25T12:40:00.247Z,2.20
2022-12-25T12:42:31.036Z,1.00
2022-12-25T12:45:08.306Z,1.10
2022-12-25T12:47:43.525Z,1.20
2022-12-25T12:50:36.825Z,1.20
2022-12-25T12:53:21.921Z,1.40
2022-12-25T12:55:49.512Z,0.82
2022-12-25T12:58:35.725Z,1.27
2022-12-25T13:01:25.791Z,1.70
2022-12-25T13:04:30.123Z,1.33
2022-12-25T13:07:12.208Z,1.33
2022-12-25T13:09:57.685Z,0.90
2022-12-25T13:12:25.440Z,1.00
2022-12-25T13:14:52.706Z,1.00
2022-12-25T13:17:25.781Z,1.80
2022-12-25T13:19:56.447Z,2.05
2022-12-25T13:22:34.879Z,1.10
2022-12-25T13:25:05.295Z,1.08
2022-12-25T13:27:33.818Z,0.82
2022-12-25T13:30:15.315Z,1.25
2022-12-25T13:32:43.257Z,2.03
2022-12-25T13:35:17.459Z,1.67
2022-12-25T13:37:45.015Z,1.75
2022-12-25T13:40:25.133Z,1.08
2022-12-25T13:42:56.844Z,1.45
2022-12-25T13:45:27.033Z,1.83
2022-12-25T13:47:55.737Z,2.15
2022-12-25T13:50:26.140Z,1.60
2022-12-25T13:52:55.667Z,1.13
2022-12-25T13:55:25.866Z,1.90
2022-12-25T13:58:05.605Z,2.35
2022-12-25T14:00:38.923Z,3.40
2022-12-25T14:03:09.890Z,2.97
2022-12-25T14:05:42.765Z,2.47
2022-12-25T14:08:14.872Z,3.03
2022-12-25T14:10:42.018Z,3.00
2022-12-25T14:13:12.860Z,3.83
2022-12-25T14:15:40.717Z,2.92
2022-12-25T14:18:20.854Z,2.58
2022-12-25T14:21:10.878Z,2.55
2022-12-25T14:23:49.722Z,1.50
2022-12-25T14:26:22.171Z,1.58
2022-12-25T14:29:25.035Z,1.88
2022-12-25T14:31:58.212Z,2.28
2022-12-25T14:34:27.706Z,3.40
2022-12-25T14:36:54.859Z,2.40
2022-12-25T14:39:42.104Z,2.30
2022-12-25T14:42:21.145Z,3.03
2022-12-25T14:45:00.281Z,2.97
2022-12-25T14:47:27.649Z,4.15
2022-12-25T14:49:54.863Z,4.45
2022-12-25T14:52:38.456Z,5.57
2022-12-25T14:55:08.126Z,6.97
2022-12-25T14:57:39.496Z,7.45
2022-12-25T15:00:22.194Z,9.15
2022-12-25T15:02:50.724Z,13.85
2022-12-25T15:05:34.748Z,19.50
2022-12-25T15:08:13.657Z,18.20
2022-12-25T15:13:29.281Z,12.73
2022-12-25T15:16:25.984Z,13.40
2022-12-25T15:18:54.548Z,9.48
2022-12-25T15:21:30.543Z,7.32
2022-12-25T15:23:59.217Z,16.65
2022-12-25T15:26:28.325Z,19.25
2022-12-25T15:28:55.326Z,21.08
2022-12-25T15:31:30.767Z,23.30
2022-12-25T15:34:01.350Z,18.58
2022-12-25T15:36:28.691Z,21.33
2022-12-25T15:38:56.367Z,21.58
2022-12-25T15:41:46.811Z,21.58
2022-12-25T15:44:14.259Z,21.10
2022-12-25T15:46:41.510Z,18.00
2022-12-25T15:49:10.424Z,22.20
2022-12-25T15:51:37.386Z,23.45
2022-12-25T15:54:04.726Z,19.15
2022-12-25T15:56:56.795Z,17.30
2022-12-25T15:59:24.177Z,17.73
2022-12-25T16:01:53.690Z,15.47
2022-12-25T16:04:21.471Z,16.45
2022-12-25T16:06:49.197Z,16.23
2022-12-25T16:09:17.211Z,19.45
2022-12-25T16:11:44.455Z,19.00
2022-12-25T16:14:11.767Z,16.87
2022-12-25T16:16:39.324Z,16.08
2022-12-25T16:19:06.738Z,16.93
2022-12-25T16:21:40.625Z,15.37
2022-12-25T16:24:07.978Z,13.80
2022-12-25T16:26:35.291Z,7.33
2022-12-25T16:29:06.958Z,4.93
2022-12-25T16:31:35.888Z,4.78
2022-12-25T16:34:04.061Z,4.03
2022-12-25T16:36:32.252Z,3.90
2022-12-25T16:38:59.196Z,2.45
2022-12-25T16:41:26.195Z,3.57
2022-12-25T16:43:53.012Z,3.57
2022-12-25T16:46:21.619Z,2.90
2022-12-25T16:48:48.533Z,1.70
2022-12-25T16:51:20.245Z,2.40
2022-12-25T16:53:47.915Z,2.33
2022-12-25T16:56:18.538Z,1.67
2022-12-25T16:58:46.895Z,2.45
2022-12-25T17:01:20.325Z,2.37
2022-12-25T17:03:48.040Z,2.10
2022-12-25T17:06:23.867Z,7.07
2022-12-25T17:08:52.865Z,5.00
2022-12-25T17:11:24.514Z,5.50
2022-12-25T17:13:51.433Z,11.10
2022-12-25T17:16:25.262Z,16.33
2022-12-25T17:19:05.510Z,20.20
2022-12-25T17:21:36.855Z,13.50
2022-12-25T17:24:04.814Z,9.07
2022-12-25T17:26:33.598Z,24.77
2022-12-25T17:29:01.200Z,20.75
2022-12-25T17:31:28.965Z,28.63
2022-12-25T17:33:56.152Z,37.33
2022-12-25T17:36:24.078Z,53.87
2022-12-25T17:38:52.074Z,49.47
2022-12-25T17:41:19.859Z,62.53
2022-12-25T17:43:47.947Z,36.47
2022-12-25T17:46:20.267Z,50.27
2022-12-25T17:48:47.672Z,48.33
2022-12-25T17:51:32.424Z,48.57
2022-12-25T17:54:05.157Z,77.27
2022-12-25T17:56:33.079Z,57.87
2022-12-25T17:59:06.865Z,46.80
2022-12-25T18:01:35.777Z,35.20
2022-12-25T18:04:03.433Z,36.10
2022-12-25T18:06:30.429Z,37.03
2022-12-25T18:08:58.331Z,51.30
2022-12-25T18:11:29.431Z,37.23
2022-12-25T18:13:58.400Z,25.33
2022-12-25T18:16:27.034Z,21.30
2022-12-25T18:18:54.263Z,20.48
2022-12-25T18:21:22.522Z,23.00
2022-12-25T18:23:50.136Z,20.10
2022-12-25T18:26:17.759Z,24.53
2022-12-25T18:28:44.714Z,26.13
2022-12-25T18:31:15.257Z,27.27
2022-12-25T18:33:42.647Z,25.57
2022-12-25T18:36:12.146Z,28.30
2022-12-25T18:38:39.128Z,26.70
2022-12-25T18:41:08.006Z,26.47
2022-12-25T18:43:52.320Z,28.10
2022-12-25T18:46:24.697Z,24.27
2022-12-25T18:48:55.254Z,21.27
2022-12-25T18:51:22.233Z,17.77
2022-12-25T18:53:49.247Z,15.43
2022-12-25T18:56:18.554Z,15.73
2022-12-25T19:01:24.128Z,13.17
2022-12-25T19:03:56.057Z,13.83
2022-12-25T19:06:31.660Z,13.35
2022-12-25T19:08:59.763Z,15.00
2022-12-25T19:11:26.644Z,14.80
2022-12-25T19:13:53.524Z,13.57
2022-12-25T19:16:20.498Z,11.53
2022-12-25T19:18:47.446Z,13.33
2022-12-25T19:21:14.548Z,14.37
2022-12-25T19:23:41.645Z,14.17
2022-12-25T19:26:10.045Z,15.90
2022-12-25T19:28:38.221Z,15.57
2022-12-25T19:31:07.689Z,13.77
2022-12-25T19:33:35.667Z,13.10
2022-12-25T19:36:05.036Z,15.20
2022-12-25T19:38:32.108Z,13.32
2022-12-25T19:41:02.145Z,12.33
2022-12-25T19:43:31.223Z,14.40
2022-12-25T19:46:00.052Z,15.03
2022-12-25T19:48:27.616Z,25.17
2022-12-25T19:50:54.730Z,23.47
2022-12-25T19:53:23.962Z,29.40
2022-12-25T19:55:52.785Z,25.90
2022-12-25T19:58:23.926Z,33.05
2022-12-25T20:01:06.087Z,27.87
2022-12-25T20:03:34.970Z,26.40
2022-12-25T20:06:05.968Z,20.37
2022-12-25T20:08:33.115Z,18.33
2022-12-25T20:11:00.124Z,21.73
2022-12-25T20:13:27.098Z,23.50
2022-12-25T20:16:02.032Z,17.50
2022-12-25T20:18:29.401Z,15.63
2022-12-25T20:21:01.912Z,16.70
2022-12-25T20:23:29.502Z,16.53
2022-12-25T20:26:01.093Z,16.10
2022-12-25T20:28:29.279Z,16.50
2022-12-25T20:30:56.888Z,18.83
2022-12-25T20:33:24.723Z,34.10
2022-12-25T20:35:51.827Z,30.27
2022-12-25T20:38:19.776Z,31.73
2022-12-25T20:41:25.027Z,26.70
2022-12-25T20:43:38.934Z,22.38
2022-12-25T20:46:10.929Z,19.40
2022-12-25T20:48:38.239Z,19.10
2022-12-25T20:51:16.876Z,21.03
2022-12-25T20:53:45.421Z,19.00
2022-12-25T20:56:14.135Z,17.67
2022-12-25T20:58:41.622Z,18.33
2022-12-25T21:01:14.551Z,18.77
2022-12-25T21:03:42.095Z,19.50
2022-12-25T21:06:09.421Z,19.23
2022-12-25T21:08:37.068Z,21.70
2022-12-25T21:11:05.405Z,21.83
2022-12-25T21:13:36.127Z,21.73
2022-12-25T21:16:08.484Z,20.10
2022-12-25T21:18:35.831Z,20.60
2022-12-25T21:21:06.689Z,21.30
2022-12-25T21:23:35.384Z,21.60
2022-12-25T21:26:19.295Z,19.95
2022-12-25T21:28:50.443Z,23.03
2022-12-25T21:31:17.805Z,25.77
2022-12-25T21:33:55.156Z,21.53
2022-12-25T21:36:32.553Z,25.73
2022-12-25T21:39:07.433Z,24.15
2022-12-25T21:41:36.923Z,44.73
2022-12-25T21:46:30.875Z,49.27
2022-12-25T21:48:58.855Z,32.23
2022-12-25T21:51:47.744Z,35.87
2022-12-25T21:54:15.606Z,37.28
2022-12-25T21:56:45.541Z,41.90
2022-12-25T21:59:18.022Z,29.90
2022-12-25T22:01:45.940Z,38.10
2022-12-25T22:04:15.307Z,49.20
2022-12-25T22:07:01.290Z,51.05
2022-12-25T22:09:28.406Z,46.07
2022-12-25T22:12:13.896Z,52.37
2022-12-25T22:14:55.846Z,65.90
2022-12-25T22:17:47.423Z,69.43
2022-12-25T22:20:25.720Z,68.20
2022-12-25T22:22:53.061Z,70.00
2022-12-25T22:25:22.086Z,81.83
2022-12-25T22:27:52.817Z,65.53
2022-12-25T22:30:25.802Z,66.00
2022-12-25T22:32:53.580Z,47.87
2022-12-25T22:35:20.852Z,52.23
2022-12-25T22:37:48.449Z,58.10
2022-12-25T22:40:17.927Z,56.13
2022-12-25T22:45:12.611Z,57.43
2022-12-25T22:47:39.530Z,57.83
2022-12-25T22:50:06.845Z,57.73
2022-12-25T22:52:34.434Z,56.63
2022-12-25T22:55:02.581Z,59.20
2022-12-25T22:57:29.584Z,60.87
2022-12-25T22:59:56.580Z,55.53
2022-12-25T23:02:23.784Z,54.40
2022-12-25T23:04:51.146Z,50.13
2022-12-25T23:07:18.178Z,52.57
2022-12-25T23:09:45.349Z,65.23
2022-12-25T23:12:32.632Z,91.73
2022-12-25T23:15:00.142Z,85.43
2022-12-25T23:17:45.783Z,82.83
2022-12-25T23:20:33.754Z,80.00
2022-12-25T23:23:20.061Z,76.33
2022-12-25T23:26:06.909Z,77.23
2022-12-25T23:28:52.982Z,77.23
2022-12-25T23:31:25.610Z,84.77
2022-12-25T23:33:55.180Z,97.60
2022-12-25T23:38:52.871Z,76.47
2022-12-25T23:41:22.169Z,73.87
2022-12-25T23:43:49.147Z,88.73
2022-12-25T23:46:16.538Z,55.87
2022-12-25T23:48:43.517Z,58.70
2022-12-25T23:51:10.778Z,72.53
2022-12-25T23:53:37.648Z,84.83
2022-12-25T23:56:05.035Z,71.33
2022-12-25T23:58:33.628Z,69.68
